Puerto Banus, Marbella

>

This is an optional block (switch it off / on) in the settings - file ($SITE['banners'] = false;)

You can display ads, any other important text or photo’s using text / html or PHP code.

You can place one or more at the top and or bottom and it can all be different for content / size .



Meteosat more information blitzortung!


Radar lluvias  rain snow radar


Visita nuestra red de sitios de meteo:

Documentation for the template used

MeteoibericaRed estaciones Meteorologicas

MeteoclimaticRed estaciones Meteorologicas



Sin Advertencias climatologicas .En este momento tenemos Nivel Verde.    No hay Alarmas

Pagina Historial Weather Underground texto

Diario Resumen January 3, 2018 Unidades:  impérial    Métrico   Tanto
« Anterior Dia
Siguiente Dia »
Diario Semana Mensual Anual Personalizada
  Maxima: Minima: Media:
Temperatura: 64.9 °F 55.2 °F 59.9 °F
Punto de rocío: 57.9 °F 47.7 °F 52.7 °F
Humedad: 90 % 64 % 78 %
Velocidad del Viento: 9.2 mph 0 mph 2.7 mph
Ráfagas de viento: 9.2 mph - -
Viento:- - WSW
Pression baro: 30.5 in 30.4 in -
Précipitaciones: 0 in    
Historical Graphs
 
 
Datos de tabla para January 3, 2018
Tiempo Temperatura Punto de rocío Pression baro Viento Velocidad del Viento Ráfagas de viento Humedad Las precipitaciones Rate ( Hora )
00:01 61 °F 48.6 °F 30.4 in North 3.5 mph 3.5 mph 64 % 0 in
00:02 61 °F 48.6 °F 30.4 in North 3.5 mph 3.5 mph 64 % 0 in
00:08 61 °F 48.7 °F 30.4 in North 3 mph 3 mph 64 % 0 in
00:10 61 °F 48.7 °F 30.4 in North 3.5 mph 3.5 mph 64 % 0 in
00:13 61.2 °F 48.7 °F 30.4 in NNW 3.5 mph 3.5 mph 64 % 0 in
00:18 61.3 °F 48.9 °F 30.4 in Calm     64 % 0 in
00:19 61.3 °F 48.9 °F 30.4 in Calm     64 % 0 in
00:20 61.3 °F 48.9 °F 30.4 in Calm     64 % 0 in
00:24 60.6 °F 48.4 °F 30.4 in NNW 5 mph 5 mph 64 % 0 in
00:29 59.5 °F 48.2 °F 30.4 in North 4 mph 4 mph 66 % 0 in
00:31 59.5 °F 48 °F 30.4 in North 3.5 mph 3.5 mph 66 % 0 in
00:32 59.4 °F 47.8 °F 30.4 in NNW 3.5 mph 3.5 mph 66 % 0 in
00:36 59.2 °F 47.7 °F 30.4 in North 4 mph 4 mph 66 % 0 in
00:41 58.8 °F 48 °F 30.4 in NNW 4 mph 4 mph 67 % 0 in
00:46 58.8 °F 47.8 °F 30.4 in North 3.5 mph 3.5 mph 67 % 0 in
00:47 58.8 °F 48 °F 30.4 in North 3.5 mph 3.5 mph 67 % 0 in
00:52 59.2 °F 48 °F 30.4 in North 5.8 mph 5.8 mph 67 % 0 in
00:53 59.2 °F 48 °F 30.4 in North 5.8 mph 5.8 mph 67 % 0 in
00:55 58.8 °F 48 °F 30.4 in North 6 mph 6 mph 67 % 0 in
00:58 58.6 °F 47.7 °F 30.4 in North 4.6 mph 4.6 mph 67 % 0 in
01:03 58.5 °F 48 °F 30.4 in North 7 mph 7 mph 68 % 0 in
01:05 58.5 °F 48 °F 30.4 in North 5.8 mph 5.8 mph 68 % 0 in
01:08 58.5 °F 47.8 °F 30.4 in North 8 mph 8 mph 68 % 0 in
01:13 58.1 °F 47.7 °F 30.4 in North 3.5 mph 3.5 mph 68 % 0 in
01:17 58.1 °F 48 °F 30.4 in Calm     69 % 0 in
01:19 57.9 °F 47.8 °F 30.4 in Calm     69 % 0 in
01:22 57.7 °F 47.7 °F 30.4 in NNE 3.5 mph 3.5 mph 69 % 0 in
01:27 57.4 °F 47.7 °F 30.4 in North 4.6 mph 4.6 mph 70 % 0 in
01:32 57.4 °F 48 °F 30.4 in Calm     71 % 0 in
01:35 57.6 °F 48.4 °F 30.4 in Calm     71 % 0 in
01:36 57.6 °F 48.4 °F 30.4 in Calm     71 % 0 in
01:40 57.9 °F 48.6 °F 30.4 in Calm     71 % 0 in
01:41 57.9 °F 48.6 °F 30.4 in Calm     71 % 0 in
01:46 59 °F 49.3 °F 30.4 in Calm     70 % 0 in
01:48 59.2 °F 49.3 °F 30.4 in Calm     70 % 0 in
01:50 59.4 °F 49.1 °F 30.4 in Calm     69 % 0 in
01:53 59.4 °F 49.1 °F 30.4 in Calm     69 % 0 in
01:57 59.2 °F 48.6 °F 30.4 in Calm     68 % 0 in
01:58 59.2 °F 48.6 °F 30.4 in NNW 3 mph 3 mph 68 % 0 in
02:05 59.2 °F 48.9 °F 30.4 in NW 4.6 mph 4.6 mph 69 % 0 in
02:11 59.5 °F 49.5 °F 30.4 in NNW 4 mph 4 mph 69 % 0 in
02:14 60.1 °F 49.5 °F 30.4 in NW 3.5 mph 3.5 mph 68 % 0 in
02:16 60.4 °F 49.8 °F 30.4 in NW 3.5 mph 3.5 mph 68 % 0 in
02:21 61 °F 49.8 °F 30.4 in NNW 2.3 mph 2.3 mph 67 % 0 in
02:22 61 °F 49.8 °F 30.4 in NNW 1.2 mph   67 % 0 in
02:23 61 °F 49.8 °F 30.4 in Calm     67 % 0 in
02:28 61.2 °F 50.2 °F 30.4 in NW 3.5 mph 3.5 mph 67 % 0 in
02:31 61 °F 50.4 °F 30.4 in West 3.5 mph 3.5 mph 68 % 0 in
02:34 60.6 °F 50.5 °F 30.4 in West 4 mph 4 mph 69 % 0 in
02:39 60.4 °F 50.2 °F 30.4 in West 3.5 mph 3.5 mph 69 % 0 in
02:40 60.4 °F 50.2 °F 30.4 in West 3 mph 3 mph 69 % 0 in
02:45 60.3 °F 50.4 °F 30.4 in WNW 4 mph 4 mph 70 % 0 in
02:46 60.1 °F 50.4 °F 30.4 in WNW 3.5 mph 3.5 mph 70 % 0 in
02:47 60.1 °F 50.2 °F 30.4 in West 3.5 mph 3.5 mph 70 % 0 in
02:52 59.9 °F 50.5 °F 30.4 in West 2.3 mph 2.3 mph 71 % 0 in
02:54 59.9 °F 50.5 °F 30.4 in West 3 mph 3 mph 71 % 0 in
02:59 59.7 °F 50.4 °F 30.4 in West 3.5 mph 3.5 mph 71 % 0 in
03:04 59.7 °F 50.4 °F 30.4 in West 3.5 mph 3.5 mph 71 % 0 in
03:05 59.7 °F 50.4 °F 30.4 in West 3.5 mph 3.5 mph 71 % 0 in
03:10 59.7 °F 50.4 °F 30.4 in West 4 mph 4 mph 71 % 0 in
03:11 59.7 °F 50.4 °F 30.4 in West 4 mph 4 mph 71 % 0 in
03:12 59.7 °F 50.4 °F 30.4 in West 3.5 mph 3.8 mph 71 % 0 in
03:17 59.7 °F 50.4 °F 30.4 in West 3.5 mph 3.5 mph 71 % 0 in
03:22 59.7 °F 50.4 °F 30.4 in Calm     71 % 0 in
03:23 59.7 °F 50.4 °F 30.4 in West 1.2 mph   71 % 0 in
03:28 59.5 °F 49.8 °F 30.4 in WNW 3.5 mph 3.5 mph 70 % 0 in
03:33 59.4 °F 50 °F 30.4 in ENE 4.6 mph 4.6 mph 71 % 0 in
03:37 58.8 °F 50.2 °F 30.4 in Calm     73 % 0 in
03:39 58.6 °F 50 °F 30.4 in Calm     73 % 0 in
03:44 58.3 °F 50 °F 30.4 in Calm     74 % 0 in
03:46 58.1 °F 49.8 °F 30.4 in Calm     74 % 0 in
03:51 58.1 °F 49.8 °F 30.4 in Calm     74 % 0 in
03:53 57.9 °F 49.8 °F 30.4 in Calm     74 % 0 in
03:54 57.9 °F 49.8 °F 30.4 in NW 3 mph 3 mph 74 % 0 in
03:59 57.7 °F 49.3 °F 30.4 in North 4 mph 4 mph 73 % 0 in
04:04 57.6 °F 49.5 °F 30.4 in NNW 3.5 mph 3.5 mph 74 % 0 in
04:06 57.6 °F 49.5 °F 30.4 in North 2.3 mph 2.3 mph 74 % 0 in
04:07 57.6 °F 49.5 °F 30.4 in North 2.3 mph 2.3 mph 74 % 0 in
04:12 57.4 °F 49.1 °F 30.4 in Calm     74 % 0 in
04:15 57 °F 48.9 °F 30.4 in North 2.3 mph 2.3 mph 74 % 0 in
04:16 57 °F 48.7 °F 30.4 in North 1.2 mph 1.2 mph 74 % 0 in
04:21 56.8 °F 49.1 °F 30.4 in Calm     75 % 0 in
04:26 57.4 °F 49.8 °F 30.4 in North 2.3 mph 2.3 mph 76 % 0 in
04:31 57.6 °F 50.2 °F 30.4 in Calm     76 % 0 in
04:35 57.7 °F 50.4 °F 30.4 in North 2.3 mph 2.3 mph 76 % 0 in
04:40 57.9 °F 50.5 °F 30.4 in Calm     76 % 0 in
04:45 58.3 °F 50.7 °F 30.4 in Calm     76 % 0 in
04:47 58.3 °F 50.7 °F 30.4 in Calm     76 % 0 in
04:48 58.5 °F 50.9 °F 30.4 in Calm     76 % 0 in
04:53 58.8 °F 51.3 °F 30.4 in North 2.3 mph 2.3 mph 76 % 0 in
04:57 58.8 °F 50.5 °F 30.4 in North 3.5 mph 3.5 mph 74 % 0 in
04:58 58.6 °F 50.4 °F 30.4 in North 4.6 mph 4.6 mph 74 % 0 in
05:02 57.6 °F 48.9 °F 30.4 in North 3.5 mph 3.5 mph 73 % 0 in
05:04 57.4 °F 49.3 °F 30.4 in North 3.5 mph 3.5 mph 74 % 0 in
05:10 56.8 °F 49.1 °F 30.4 in NW 4 mph 4 mph 75 % 0 in
05:15 57.2 °F 49.6 °F 30.4 in Calm     76 % 0 in
05:17 57.4 °F 49.5 °F 30.4 in Calm     75 % 0 in
05:22 57.6 °F 49.6 °F 30.4 in NNW 5 mph 5 mph 75 % 0 in
05:23 57.6 °F 49.6 °F 30.4 in NNW 5.8 mph 5.8 mph 75 % 0 in
05:27 57.6 °F 49.6 °F 30.4 in SSW 4.6 mph 4.6 mph 75 % 0 in
05:28 57.6 °F 49.6 °F 30.4 in SSW 4.6 mph 4.6 mph 75 % 0 in
05:29 57.6 °F 49.6 °F 30.4 in SW 5 mph 5 mph 75 % 0 in
05:34 57.6 °F 50.2 °F 30.4 in WSW 1.2 mph   76 % 0 in
05:36 57.6 °F 50.2 °F 30.4 in Calm     76 % 0 in
05:41 57.6 °F 50 °F 30.4 in Calm     76 % 0 in
05:46 57.7 °F 50.5 °F 30.4 in West 3 mph 3 mph 77 % 0 in
05:48 57.7 °F 50.5 °F 30.4 in West 3.5 mph 3.5 mph 77 % 0 in
05:53 57.2 °F 49.3 °F 30.4 in West 2.3 mph 2.3 mph 75 % 0 in
05:54 57 °F 49.6 °F 30.4 in West 1.2 mph   76 % 0 in
05:59 57 °F 49.8 °F 30.4 in West 1.2 mph 1.2 mph 77 % 0 in
06:00 57 °F 49.8 °F 30.4 in West 1.2 mph 1.2 mph 77 % 0 in
06:05 56.8 °F 49.8 °F 30.4 in West 1 mph   77 % 0 in
06:06 56.8 °F 49.8 °F 30.4 in West 1.2 mph 1.2 mph 77 % 0 in
06:11 56.8 °F 49.8 °F 30.4 in Calm     77 % 0 in
06:13 56.8 °F 49.6 °F 30.4 in West 1.2 mph   77 % 0 in
06:18 56.7 °F 49.6 °F 30.4 in Calm     77 % 0 in
06:21 56.7 °F 49.5 °F 30.4 in Calm     77 % 0 in
06:24 56.7 °F 49.5 °F 30.4 in Calm     77 % 0 in
06:29 56.5 °F 49.5 °F 30.4 in Calm     77 % 0 in
06:31 56.7 °F 49.5 °F 30.4 in Calm     77 % 0 in
06:36 55.8 °F 48.4 °F 30.4 in NNE 3.5 mph 3.5 mph 76 % 0 in
06:41 55.8 °F 48.6 °F 30.4 in SW 4 mph 4 mph 77 % 0 in
06:43 55.8 °F 48.9 °F 30.4 in SW 4 mph 4 mph 78 % 0 in
06:47 55.9 °F 49.5 °F 30.4 in SW 3.5 mph 3.5 mph 79 % 0 in
06:50 56.1 °F 49.6 °F 30.4 in SW 2.3 mph 2.3 mph 79 % 0 in
06:55 56.5 °F 50.5 °F 30.4 in East 2.3 mph   81 % 0 in
06:56 56.5 °F 50.5 °F 30.4 in East 2.3 mph   81 % 0 in
07:01 56.5 °F 50.5 °F 30.4 in Calm     81 % 0 in
07:02 56.5 °F 50.4 °F 30.4 in Calm     80 % 0 in
07:07 56.3 °F 50.5 °F 30.4 in Calm     81 % 0 in
07:12 56.3 °F 50.2 °F 30.4 in WSW 3.5 mph 3.5 mph 80 % 0 in
07:15 56.3 °F 50.5 °F 30.4 in WSW 2 mph 4 mph 81 % 0 in
07:16 56.3 °F 50.2 °F 30.4 in NW 3.5 mph 3.5 mph 80 % 0 in
07:20 56.1 °F 49.8 °F 30.4 in NW 2.3 mph   79 % 0 in
07:25 56.1 °F 49.6 °F 30.4 in North 2.3 mph 2.3 mph 79 % 0 in
07:26 56.1 °F 49.6 °F 30.4 in North 2.3 mph 2.3 mph 79 % 0 in
07:31 55.9 °F 49.6 °F 30.4 in Calm     79 % 0 in
07:32 55.9 °F 49.6 °F 30.4 in Calm     79 % 0 in
07:36 55.6 °F 49.1 °F 30.4 in NNE 3.5 mph 3.5 mph 79 % 0 in
07:41 55.2 °F 49.3 °F 30.4 in NNE 2.3 mph 2.3 mph 80 % 0 in
07:45 55.2 °F 49.1 °F 30.4 in NNE 2.3 mph   80 % 0 in
07:51 55.2 °F 49.5 °F 30.4 in Calm     81 % 0 in
07:56 55.4 °F 49.6 °F 30.4 in Calm     81 % 0 in
08:01 55.6 °F 49.8 °F 30.4 in Calm     81 % 0 in
08:02 55.6 °F 49.8 °F 30.4 in Calm     81 % 0 in
08:03 55.6 °F 49.8 °F 30.4 in NNE 2 mph 2 mph 81 % 0 in
08:08 55.4 °F 49.6 °F 30.4 in NNE 3.5 mph 3.5 mph 81 % 0 in
08:13 55.4 °F 49.6 °F 30.4 in NNE 2.3 mph 2.3 mph 81 % 0 in
08:16 55.4 °F 49.6 °F 30.4 in North 3.5 mph 3.5 mph 81 % 0 in
08:21 55.2 °F 49.8 °F 30.4 in North 1.2 mph   82 % 0 in
08:22 55.4 °F 50 °F 30.4 in Calm     82 % 0 in
08:27 55.6 °F 50.2 °F 30.4 in Calm     82 % 0 in
08:30 55.4 °F 50 °F 30.4 in Calm     82 % 0 in
08:33 55.6 °F 50.2 °F 30.4 in Calm     82 % 0 in
08:38 55.6 °F 50.2 °F 30.4 in NW 3.5 mph 3.5 mph 82 % 0 in
08:40 55.6 °F 50.2 °F 30.4 in NW 2.3 mph 2.3 mph 82 % 0 in
08:45 55.6 °F 50.2 °F 30.4 in Calm     82 % 0 in
08:50 55.8 °F 50.4 °F 30.4 in NW 3.5 mph 3.5 mph 82 % 0 in
08:52 55.8 °F 50 °F 30.4 in NNW 2.3 mph 2.3 mph 81 % 0 in
08:57 55.9 °F 50.2 °F 30.4 in NNW 3.5 mph 3.5 mph 81 % 0 in
09:02 56.1 °F 50.4 °F 30.4 in Calm     81 % 0 in
09:05 55.9 °F 50.4 °F 30.4 in Calm     81 % 0 in
09:08 55.9 °F 50.2 °F 30.4 in NNW 3.5 mph 3.5 mph 81 % 0 in
09:13 56.3 °F 50.5 °F 30.4 in NNW 2.3 mph 2.3 mph 81 % 0 in
09:19 56.5 °F 50.4 °F 30.4 in Calm     80 % 0 in
09:23 56.7 °F 50.5 °F 30.4 in Calm     80 % 0 in
09:24 56.7 °F 50.5 °F 30.4 in Calm     80 % 0 in
09:29 56.8 °F 50.7 °F 30.4 in Calm     80 % 0 in
09:34 57.4 °F 51.3 °F 30.4 in Calm     80 % 0 in
09:36 57.6 °F 51.4 °F 30.4 in NNW 2.3 mph 2.3 mph 80 % 0 in
09:40 57.6 °F 51.1 °F 30.4 in Calm     79 % 0 in
09:42 57.7 °F 51.3 °F 30.4 in Calm     79 % 0 in
09:47 57.9 °F 51.4 °F 30.4 in Calm     79 % 0 in
09:49 58.1 °F 51.6 °F 30.4 in Calm     79 % 0 in
09:53 58.5 °F 52 °F 30.4 in Calm     79 % 0 in
09:58 58.6 °F 52.2 °F 30.4 in Calm     79 % 0 in
10:02 59.2 °F 52.5 °F 30.4 in Calm     79 % 0 in
10:04 59.2 °F 52.7 °F 30.4 in NNW 1.2 mph 1.2 mph 79 % 0 in
10:07 59.2 °F 52.7 °F 30.4 in Calm     79 % 0 in
10:11 59.4 °F 52.9 °F 30.4 in Calm     79 % 0 in
10:16 59.5 °F 53.1 °F 30.4 in Calm     79 % 0 in
10:22 59.4 °F 52.2 °F 30.4 in NNW 2.3 mph 2.3 mph 77 % 0 in
10:27 59.5 °F 52.3 °F 30.5 in Calm     77 % 0 in
10:28 59.5 °F 52.3 °F 30.5 in Calm     77 % 0 in
10:33 59.9 °F 52.7 °F 30.5 in Calm     77 % 0 in
10:35 60.1 °F 52.9 °F 30.5 in Calm     77 % 0 in
10:38 60.1 °F 52.5 °F 30.5 in Calm     76 % 0 in
10:41 60.3 °F 53.1 °F 30.5 in Calm     77 % 0 in
10:46 60.8 °F 54 °F 30.5 in Calm     78 % 0 in
10:48 61 °F 54 °F 30.5 in Calm     78 % 0 in
10:53 61.2 °F 54.5 °F 30.5 in NNW 3.5 mph 3.5 mph 79 % 0 in
10:54 61.2 °F 54.5 °F 30.5 in NNW 2.3 mph 2.3 mph 79 % 0 in
10:59 61.3 °F 54.7 °F 30.5 in Calm     79 % 0 in
11:01 61.3 °F 54.9 °F 30.5 in Calm     79 % 0 in
11:06 61.5 °F 55 °F 30.5 in Calm     79 % 0 in
11:10 61.9 °F 55.2 °F 30.5 in Calm   2 mph 79 % 0 in
11:11 61.9 °F 55.2 °F 30.5 in NNW 1.2 mph 1.2 mph 79 % 0 in
11:12 62.1 °F 55.4 °F 30.5 in NNW 2 mph 2 mph 79 % 0 in
11:17 62.1 °F 55.4 °F 30.5 in NNW 2.3 mph 2.3 mph 79 % 0 in
11:18 62.1 °F 55 °F 30.5 in NNW 3.5 mph 3.5 mph 78 % 0 in
11:23 61.7 °F 54.3 °F 30.5 in NNW 3.5 mph 3.5 mph 77 % 0 in
11:25 61.7 °F 54.3 °F 30.5 in NNW 3.5 mph 3.5 mph 77 % 0 in
11:28 61.9 °F 54.5 °F 30.5 in NNW 3.5 mph 3.5 mph 77 % 0 in
11:33 61.9 °F 54.1 °F 30.5 in NW 3.5 mph 3.5 mph 76 % 0 in
11:35 62.1 °F 54.3 °F 30.5 in NW 3.5 mph 3.5 mph 76 % 0 in
11:40 62.2 °F 54.3 °F 30.5 in NW 2.3 mph 2.3 mph 75 % 0 in
11:41 62.4 °F 54.3 °F 30.5 in NW 2.3 mph 2.3 mph 75 % 0 in
11:46 62.6 °F 54.7 °F 30.5 in NW 2.3 mph 2.3 mph 75 % 0 in
11:48 62.8 °F 54.7 °F 30.5 in NW 2.3 mph 2.3 mph 75 % 0 in
11:53 63 °F 54.9 °F 30.5 in NW 1.2 mph   75 % 0 in
11:54 63 °F 54.9 °F 30.5 in NW 1.2 mph 1.2 mph 75 % 0 in
11:59 63.1 °F 55.6 °F 30.5 in NW 2 mph 2 mph 76 % 0 in
12:00 63.3 °F 55.6 °F 30.5 in NW 2.3 mph 2.3 mph 76 % 0 in
12:05 63.3 °F 56.1 °F 30.5 in Calm     77 % 0 in
12:06 63.3 °F 56.1 °F 30.5 in Calm     77 % 0 in
12:11 63.7 °F 56.5 °F 30.5 in Calm     77 % 0 in
12:12 63.7 °F 56.5 °F 30.5 in Calm     77 % 0 in
12:16 63.7 °F 56.5 °F 30.5 in Calm     77 % 0 in
12:22 63.9 °F 56.1 °F 30.4 in NW 1.2 mph 1.2 mph 76 % 0 in
12:23 63.9 °F 56.1 °F 30.4 in NW 1.2 mph   76 % 0 in
12:32 64 °F 55.6 °F 30.4 in Calm     74 % 0 in
12:34 64.2 °F 55.8 °F 30.4 in Calm     74 % 0 in
12:39 64.6 °F 55.9 °F 30.4 in NW 2.3 mph 2.3 mph 74 % 0 in
12:41 64.6 °F 55.8 °F 30.4 in NW 1.2 mph 1.2 mph 73 % 0 in
12:46 64.8 °F 55.9 °F 30.4 in Calm     73 % 0 in
12:49 64.8 °F 55.9 °F 30.4 in NW 2.3 mph 2.3 mph 73 % 0 in
12:52 64.8 °F 55.6 °F 30.4 in NW 2.3 mph 2.3 mph 72 % 0 in
12:54 64.8 °F 55.6 °F 30.4 in NW 3 mph 3 mph 72 % 0 in
12:59 64.4 °F 54.9 °F 30.4 in West 4 mph 4.2 mph 71 % 0 in
13:00 64.4 °F 54.9 °F 30.4 in WSW 6 mph 6 mph 71 % 0 in
13:05 63.9 °F 54.3 °F 30.4 in WSW 4.6 mph 4.6 mph 71 % 0 in
13:06 63.9 °F 54.1 °F 30.4 in WSW 3.5 mph 3.5 mph 71 % 0 in
13:10 64 °F 54.3 °F 30.4 in WSW 4.6 mph 4.6 mph 71 % 0 in
13:12 64.2 °F 55 °F 30.4 in West 5 mph 5 mph 72 % 0 in
13:17 64.8 °F 55 °F 30.4 in West 3.5 mph 3.5 mph 71 % 0 in
13:20 64.9 °F 54.9 °F 30.4 in SW 5 mph 5 mph 70 % 0 in
13:24 64.6 °F 54.9 °F 30.4 in SE 3.5 mph 3.5 mph 71 % 0 in
13:26 64.6 °F 54.9 °F 30.4 in SSE 3.5 mph 3.5 mph 71 % 0 in
13:30 64.6 °F 55.2 °F 30.4 in SSW 5 mph 5 mph 72 % 0 in
13:35 64.2 °F 56.1 °F 30.4 in South 4 mph 4 mph 75 % 0 in
13:36 64.2 °F 56.1 °F 30.4 in South 4.6 mph 4.6 mph 75 % 0 in
13:41 63.5 °F 55.4 °F 30.4 in SW 5.8 mph 5.8 mph 75 % 0 in
13:42 63.3 °F 55.2 °F 30.4 in SW 5.8 mph 5.8 mph 75 % 0 in
13:51 63.5 °F 55.4 °F 30.4 in SW 4.6 mph 4.6 mph 75 % 0 in
13:52 63.5 °F 55.4 °F 30.4 in SW 4.6 mph 4.6 mph 75 % 0 in
14:02 63.7 °F 55.2 °F 30.4 in SW 5.8 mph 5.8 mph 74 % 0 in
14:06 63.7 °F 55.2 °F 30.4 in WSW 6.9 mph 6.9 mph 74 % 0 in
14:08 63.5 °F 54.7 °F 30.4 in WSW 6.9 mph 6.9 mph 73 % 0 in
14:13 63.3 °F 54.1 °F 30.4 in WSW 6.9 mph 6.9 mph 72 % 0 in
14:14 63.3 °F 53.8 °F 30.4 in WSW 5.8 mph 5.8 mph 71 % 0 in
14:20 63.7 °F 54.3 °F 30.4 in WSW 5 mph 6 mph 72 % 0 in
14:22 63.9 °F 54.7 °F 30.4 in SW 8.1 mph 8.1 mph 72 % 0 in
14:25 64 °F 55.2 °F 30.4 in SW 8.1 mph 8.1 mph 73 % 0 in
14:29 63.9 °F 55.8 °F 30.4 in SW 6.9 mph 6.9 mph 75 % 0 in
14:30 63.9 °F 55.4 °F 30.4 in SW 6.9 mph 6.9 mph 74 % 0 in
14:35 63.7 °F 55.2 °F 30.4 in WSW 7 mph 7 mph 74 % 0 in
14:38 63.7 °F 55.2 °F 30.4 in SW 6.9 mph 6.9 mph 74 % 0 in
14:43 63.5 °F 55.8 °F 30.4 in SW 8.1 mph 8.1 mph 76 % 0 in
14:48 63.1 °F 55 °F 30.4 in WSW 8.1 mph 8.1 mph 75 % 0 in
14:50 63.1 °F 55.4 °F 30.4 in WSW 8.1 mph 8.1 mph 76 % 0 in
14:55 63 °F 55.2 °F 30.4 in WSW 9.2 mph 9.2 mph 76 % 0 in
14:56 63 °F 55.6 °F 30.4 in SW 8.1 mph 8.1 mph 77 % 0 in
15:01 62.8 °F 55.6 °F 30.4 in SW 8.1 mph 8.1 mph 77 % 0 in
15:02 62.8 °F 55.8 °F 30.4 in SW 8.1 mph 8.1 mph 78 % 0 in
15:03 63 °F 55.9 °F 30.4 in SW 5.8 mph 5.8 mph 78 % 0 in
15:07 63.1 °F 56.5 °F 30.4 in SW 3.5 mph 3.5 mph 79 % 0 in
15:09 63.1 °F 56.8 °F 30.4 in SW 3.5 mph 3.5 mph 80 % 0 in
15:14 63.5 °F 57.2 °F 30.4 in SW 5 mph 5 mph 80 % 0 in
15:19 63.5 °F 57.2 °F 30.4 in SW 6 mph 6 mph 80 % 0 in
15:24 63.3 °F 57 °F 30.4 in SW 5.8 mph 5.8 mph 80 % 0 in
15:25 63.3 °F 57 °F 30.4 in SW 4.6 mph 4.6 mph 80 % 0 in
15:30 63.3 °F 57.6 °F 30.4 in SW 5.8 mph 5.8 mph 81 % 0 in
15:35 63.3 °F 57.6 °F 30.4 in SW 4.6 mph 4.6 mph 81 % 0 in
15:36 63.3 °F 57.6 °F 30.4 in SW 4.6 mph 4.6 mph 81 % 0 in
15:39 63.3 °F 57.4 °F 30.4 in SW 5.8 mph 5.8 mph 81 % 0 in
15:43 63.1 °F 57.4 °F 30.4 in SW 5 mph 5 mph 81 % 0 in
15:47 63.1 °F 57.4 °F 30.4 in SW 4 mph 4 mph 81 % 0 in
15:50 63.1 °F 57.6 °F 30.4 in SW 4 mph 4 mph 82 % 0 in
15:55 63.3 °F 57.7 °F 30.4 in SW 2.3 mph 2.3 mph 82 % 0 in
15:56 63.1 °F 57.6 °F 30.4 in SW 3.5 mph 3.5 mph 82 % 0 in
16:01 63 °F 57.7 °F 30.4 in SW 1.2 mph 1.2 mph 83 % 0 in
16:06 63.1 °F 57.9 °F 30.4 in SW 3.5 mph 3.5 mph 83 % 0 in
16:08 63 °F 57.4 °F 30.4 in SW 3.5 mph 3.5 mph 82 % 0 in
16:13 62.6 °F 57.4 °F 30.4 in SW 2.3 mph 2.3 mph 83 % 0 in
16:16 62.8 °F 57.6 °F 30.4 in SW 2.3 mph 2.3 mph 83 % 0 in
16:24 62.4 °F 57.4 °F 30.4 in South 4 mph 4 mph 83 % 0 in
16:30 61.7 °F 56.5 °F 30.4 in SE 3.5 mph 3.5 mph 83 % 0 in
16:32 61.5 °F 56.7 °F 30.4 in SE 3.5 mph 3.5 mph 84 % 0 in
16:37 62.1 °F 57 °F 30.4 in SE 1.2 mph 1.2 mph 84 % 0 in
16:38 62.1 °F 57 °F 30.4 in SE 1.2 mph 1.2 mph 84 % 0 in
16:43 62.2 °F 57.4 °F 30.4 in SE 2.3 mph 2.3 mph 84 % 0 in
16:47 62.4 °F 57.6 °F 30.4 in SE 3.5 mph 3.5 mph 84 % 0 in
16:49 62.6 °F 57.4 °F 30.4 in SE 2.3 mph 2.3 mph 83 % 0 in
16:51 62.8 °F 57.6 °F 30.4 in SE 2.3 mph 2.3 mph 83 % 0 in
16:56 63 °F 57.7 °F 30.4 in SE 3.5 mph 3.5 mph 83 % 0 in
17:00 63 °F 57.4 °F 30.4 in SE 2.3 mph 2.3 mph 82 % 0 in
17:05 62.8 °F 57 °F 30.4 in ESE 3.5 mph 3.5 mph 82 % 0 in
17:06 62.4 °F 56.8 °F 30.4 in ESE 2.3 mph 2.3 mph 82 % 0 in
17:10 62.1 °F 56.8 °F 30.4 in ESE 3.5 mph 3.5 mph 83 % 0 in
17:12 62.1 °F 56.8 °F 30.4 in East 3.5 mph 3.5 mph 83 % 0 in
17:16 61.5 °F 56.7 °F 30.4 in East 4.6 mph 4.6 mph 84 % 0 in
17:21 61.3 °F 56.8 °F 30.4 in East 4.6 mph 4.6 mph 85 % 0 in
17:24 61.2 °F 56.7 °F 30.4 in East 4.6 mph 4.6 mph 85 % 0 in
17:27 61.2 °F 56.8 °F 30.4 in East 3.5 mph 3.5 mph 86 % 0 in
17:30 61 °F 56.8 °F 30.4 in East 2.3 mph 2.3 mph 86 % 0 in
17:32 61 °F 56.7 °F 30.4 in East 1.2 mph   86 % 0 in
17:37 61 °F 57 °F 30.4 in Calm     87 % 0 in
17:38 61 °F 57 °F 30.4 in Calm     87 % 0 in
17:43 60.8 °F 56.8 °F 30.4 in East 2.3 mph 2.3 mph 87 % 0 in
17:45 60.8 °F 56.8 °F 30.4 in East 3.5 mph 3.5 mph 87 % 0 in
17:48 60.6 °F 56.8 °F 30.4 in East 3.5 mph 3.5 mph 87 % 0 in
17:53 60.4 °F 56.7 °F 30.4 in ENE 3.5 mph 3.5 mph 87 % 0 in
17:58 60.4 °F 56.8 °F 30.4 in ENE 3.5 mph 3.5 mph 88 % 0 in
18:02 60.4 °F 56.8 °F 30.4 in East 4.6 mph 4.6 mph 88 % 0 in
18:05 60.3 °F 56.7 °F 30.4 in ENE 3 mph 5 mph 88 % 0 in
18:08 60.3 °F 56.7 °F 30.4 in ENE 3.5 mph 3.5 mph 88 % 0 in
18:10 60.3 °F 56.7 °F 30.4 in ENE 3.5 mph 3.5 mph 88 % 0 in
18:14 60.1 °F 56.8 °F 30.4 in NE 4 mph 4 mph 89 % 0 in
18:15 60.1 °F 56.5 °F 30.4 in NE 3.5 mph 3.5 mph 88 % 0 in
18:20 60.1 °F 56.7 °F 30.4 in NE 3 mph 3 mph 89 % 0 in
18:22 60.1 °F 56.7 °F 30.4 in NE 3.5 mph 3.5 mph 89 % 0 in
18:24 60.1 °F 56.7 °F 30.4 in NE 3.5 mph 3.5 mph 89 % 0 in
18:29 60.1 °F 56.7 °F 30.4 in NE 3.5 mph 3.5 mph 89 % 0 in
18:34 60.1 °F 56.7 °F 30.4 in ENE 3.5 mph 3.5 mph 89 % 0 in
18:35 60.1 °F 56.7 °F 30.4 in ENE 3.5 mph 3.5 mph 89 % 0 in
18:38 60.1 °F 56.7 °F 30.4 in East 4.6 mph 4.6 mph 89 % 0 in
18:40 60.1 °F 56.7 °F 30.4 in East 2.3 mph 2.3 mph 89 % 0 in
18:45 59.9 °F 56.7 °F 30.4 in East 3.5 mph 3.5 mph 89 % 0 in
18:46 59.9 °F 56.7 °F 30.4 in East 3.5 mph 3.5 mph 89 % 0 in
18:49 59.7 °F 56.7 °F 30.4 in ENE 4.6 mph 4.6 mph 89 % 0 in
18:53 59.7 °F 56.7 °F 30.4 in NE 4 mph 4 mph 89 % 0 in
18:54 59.7 °F 56.7 °F 30.4 in NE 4 mph 4 mph 89 % 0 in
18:59 59.7 °F 56.5 °F 30.4 in Calm     89 % 0 in
19:00 59.7 °F 56.5 °F 30.4 in Calm     89 % 0 in
19:05 59.7 °F 56.5 °F 30.4 in Calm     89 % 0 in
19:06 59.7 °F 56.5 °F 30.4 in Calm     89 % 0 in
19:11 59.7 °F 56.8 °F 30.4 in Calm     90 % 0 in
19:15 59.7 °F 56.8 °F 30.4 in Calm     90 % 0 in
19:19 59.7 °F 56.8 °F 30.4 in Calm     90 % 0 in
19:24 59.7 °F 56.8 °F 30.4 in Calm     90 % 0 in
19:29 59.7 °F 56.8 °F 30.4 in Calm     90 % 0 in
19:30 59.7 °F 56.8 °F 30.4 in Calm     90 % 0 in
19:32 59.7 °F 56.8 °F 30.4 in Calm     90 % 0 in
19:35 59.7 °F 56.8 °F 30.4 in Calm     90 % 0 in
19:39 59.7 °F 56.8 °F 30.4 in Calm     90 % 0 in
19:44 59.5 °F 56.7 °F 30.4 in Calm     90 % 0 in
19:47 59.5 °F 56.7 °F 30.4 in Calm     90 % 0 in
19:52 59.4 °F 56.5 °F 30.4 in Calm     90 % 0 in
19:55 59.2 °F 56.3 °F 30.4 in Calm     90 % 0 in
19:57 59.2 °F 56.1 °F 30.4 in Calm     90 % 0 in
20:02 58.8 °F 55.9 °F 30.4 in NE 2.3 mph 2.3 mph 90 % 0 in
20:03 58.8 °F 55.9 °F 30.4 in NE 2.3 mph 2.3 mph 90 % 0 in
20:08 59 °F 56.1 °F 30.4 in Calm     90 % 0 in
20:15 59.2 °F 56.1 °F 30.4 in Calm     90 % 0 in
20:19 59.2 °F 56.1 °F 30.4 in Calm     90 % 0 in
20:24 58.8 °F 55.8 °F 30.4 in NNE 4 mph 4 mph 89 % 0 in
20:29 58.5 °F 55.2 °F 30.4 in North 5 mph 5 mph 89 % 0 in
20:30 58.5 °F 55.2 °F 30.4 in North 5 mph 5 mph 89 % 0 in
20:35 57.7 °F 54.7 °F 30.4 in North 5 mph 5 mph 89 % 0 in
20:41 57.6 °F 54.3 °F 30.4 in North 5.8 mph 5.8 mph 89 % 0 in
20:43 57.4 °F 54.1 °F 30.4 in North 4.6 mph 4.6 mph 89 % 0 in
20:47 57.4 °F 54.1 °F 30.4 in North 4.6 mph 4.6 mph 89 % 0 in
20:49 57.4 °F 54.1 °F 30.4 in NNW 3.5 mph 3.5 mph 89 % 0 in
20:55 57.7 °F 54.5 °F 30.4 in NNW 3.5 mph 3.5 mph 89 % 0 in
20:58 57.9 °F 54.7 °F 30.4 in NNW 3.5 mph 3.5 mph 89 % 0 in
21:01 58.3 °F 55 °F 30.4 in North 3.5 mph 3.6 mph 89 % 0 in
21:06 58.3 °F 55 °F 30.4 in North 3.5 mph 3.5 mph 89 % 0 in
21:11 58.6 °F 55.6 °F 30.4 in Calm     89 % 0 in
21:16 59.2 °F 55.6 °F 30.4 in Calm     88 % 0 in
21:21 59.2 °F 55.2 °F 30.4 in North 3.5 mph 3.8 mph 87 % 0 in
21:26 59.5 °F 55.6 °F 30.4 in NNW 3.5 mph 3.5 mph 87 % 0 in
21:31 59.9 °F 55.9 °F 30.4 in Calm     87 % 0 in
21:36 60.3 °F 55.8 °F 30.4 in Calm     85 % 0 in
21:42 60.4 °F 55.2 °F 30.4 in Calm     83 % 0 in
21:47 60.3 °F 54.9 °F 30.4 in NNW 5 mph 5 mph 82 % 0 in
21:52 60.3 °F 54.3 °F 30.4 in NNW 4.6 mph 4.6 mph 81 % 0 in
21:53 60.3 °F 54.3 °F 30.4 in NNW 3.5 mph 3.5 mph 81 % 0 in
21:57 60.1 °F 54.1 °F 30.4 in NNW 3.5 mph 3.5 mph 81 % 0 in
22:01 60.1 °F 53.8 °F 30.4 in NNW 4 mph 4 mph 80 % 0 in
22:02 59.9 °F 53.8 °F 30.4 in NW 4 mph 4 mph 80 % 0 in
22:06 59.7 °F 53.2 °F 30.4 in NW 3.5 mph 3.5 mph 79 % 0 in
22:10 59.5 °F 53.1 °F 30.4 in NW 3.5 mph 3.5 mph 79 % 0 in
22:11 59.4 °F 52.5 °F 30.4 in NW 3.5 mph 3.5 mph 78 % 0 in
22:14 59.4 °F 52.3 °F 30.4 in NW 3.5 mph 3.5 mph 78 % 0 in
22:19 59.4 °F 52.2 °F 30.4 in NW 3.5 mph 3.5 mph 77 % 0 in
22:21 59.4 °F 51.8 °F 30.4 in NW 3.5 mph 3.5 mph 76 % 0 in
22:26 59.5 °F 52 °F 30.4 in NW 2.3 mph 2.3 mph 76 % 0 in
22:31 59.4 °F 51.4 °F 30.4 in Calm     75 % 0 in
22:33 59.5 °F 51.6 °F 30.4 in NW 3.5 mph 3.5 mph 75 % 0 in
22:36 59.4 °F 51.4 °F 30.4 in NW 2.3 mph 2.3 mph 75 % 0 in
22:42 59.2 °F 50.7 °F 30.4 in NW 4.6 mph 4.6 mph 74 % 0 in
22:47 59.5 °F 50.5 °F 30.4 in NNW 5 mph 5 mph 72 % 0 in
22:54 59.5 °F 49.8 °F 30.4 in North 4 mph 4 mph 70 % 0 in
22:59 59.7 °F 50 °F 30.4 in North 5 mph 5 mph 70 % 0 in
23:01 59.9 °F 49.6 °F 30.4 in North 6.9 mph 6.9 mph 69 % 0 in
23:06 59.7 °F 49.6 °F 30.4 in North 6.9 mph 6.9 mph 69 % 0 in
23:08 59.7 °F 49.6 °F 30.4 in North 5.8 mph 5.8 mph 69 % 0 in
23:13 59.7 °F 49.6 °F 30.4 in North 5.8 mph 5.8 mph 69 % 0 in
23:18 59.9 °F 49.6 °F 30.4 in North 6.9 mph 6.9 mph 69 % 0 in
23:20 60.1 °F 49.8 °F 30.4 in North 6.9 mph 6.9 mph 69 % 0 in
23:23 60.3 °F 50.2 °F 30.4 in North 6.9 mph 6.9 mph 69 % 0 in
23:29 60.4 °F 49.8 °F 30.4 in North 7 mph 7 mph 68 % 0 in
23:32 60.6 °F 50.2 °F 30.4 in North 7 mph 7 mph 68 % 0 in
23:36 60.8 °F 49.8 °F 30.4 in North 5.8 mph 5.8 mph 67 % 0 in
23:37 60.8 °F 49.8 °F 30.4 in NNW 5 mph 5 mph 67 % 0 in
23:42 61 °F 49.8 °F 30.4 in North 8.1 mph 8.1 mph 67 % 0 in
23:46 61 °F 49.8 °F 30.4 in NNW 6 mph 6 mph 67 % 0 in
23:48 60.8 °F 49.8 °F 30.4 in NNW 4.6 mph 4.6 mph 67 % 0 in
23:53 61 °F 49.8 °F 30.4 in NNW 3.5 mph 3.5 mph 67 % 0 in
23:57 60.8 °F 49.8 °F 30.4 in North 3.5 mph 3.5 mph 67 % 0 in
23:58 60.6 °F 49.6 °F 30.4 in North 2.3 mph 2.3 mph 67 % 0 in
Puerto Banus, Marbella
Elogios de Weather Underground - 2 mb

Guión original por  Jim McMurry - jmcmurry@mwt.net Adaptado para la plantilla por  Wim van der Kuil - Leuven-Template.eu

Usted encontrará nuestra información del tiempo también en:

Weather Underground

Iberian Peninsula Weather Network